Time;durP1;ratioP1;P1;durP2;ratioP2;P2;SDS_P1;SDS_P2;PMS_P1;PMS_P2;Temp;Humidity;BMP_temperature;BMP_pressure;BME280_temperature;BME280_humidity;BME280_pressure;Samples;Min_cycle;Max_cycle;Signal;HPM_P1;HPM_P2
2021/06/23 00:00:29;;;;;;;15.82;10.65;;;;;;;17.80;100.00;100448.44;5098650;28;20567;-66
2021/06/23 00:03:12;;;;;;;18.70;11.63;;;;;;;17.83;100.00;100447.25;5098497;28;20049;-65
2021/06/23 00:05:56;;;;;;;13.48;11.05;;;;;;;17.88;100.00;100442.09;5114223;28;20534;-66
2021/06/23 00:08:40;;;;;;;13.27;10.65;;;;;;;17.91;100.00;100439.06;5098402;28;20042;-66
2021/06/23 00:11:24;;;;;;;17.40;11.35;;;;;;;17.97;100.00;100438.28;5084266;28;20058;-65
2021/06/23 00:14:08;;;;;;;15.82;11.40;;;;;;;17.93;100.00;100443.22;5098420;28;20135;-64
2021/06/23 00:16:52;;;;;;;20.98;11.88;;;;;;;17.93;100.00;100437.81;5098575;28;20047;-66
2021/06/23 00:19:36;;;;;;;19.25;10.73;;;;;;;17.90;100.00;100445.47;5098190;28;20167;-65
2021/06/23 00:22:20;;;;;;;17.92;12.30;;;;;;;17.90;100.00;100440.91;5084240;28;20051;-66
2021/06/23 00:25:05;;;;;;;17.52;11.40;;;;;;;17.91;100.00;100439.06;5114216;28;20139;-66
2021/06/23 00:27:48;;;;;;;13.25;11.55;;;;;;;17.86;100.00;100445.00;5098476;28;20043;-66
2021/06/23 00:30:32;;;;;;;18.60;11.60;;;;;;;17.86;100.00;100442.31;5098115;28;20164;-66
2021/06/23 00:33:19;;;;;;;13.63;11.50;;;;;;;17.90;100.00;100430.13;5098465;28;20077;-66
2021/06/23 00:36:03;;;;;;;15.68;12.20;;;;;;;17.92;100.00;100425.38;5098156;28;20096;-66
2021/06/23 00:38:47;;;;;;;21.25;12.73;;;;;;;17.91;100.00;100429.09;5098348;28;20050;-65
2021/06/23 00:41:31;;;;;;;15.95;10.85;;;;;;;17.86;100.00;100433.38;5083743;28;20058;-66
2021/06/23 00:44:15;;;;;;;17.75;11.73;;;;;;;17.84;100.00;100441.66;5098533;28;20112;-65
2021/06/23 00:46:59;;;;;;;15.98;12.15;;;;;;;17.82;100.00;100441.00;5083784;28;20088;-65
2021/06/23 00:49:43;;;;;;;19.42;11.50;;;;;;;17.92;100.00;100446.94;5083910;28;20112;-66
2021/06/23 00:52:27;;;;;;;13.90;11.68;;;;;;;17.87;100.00;100446.69;5098263;28;20108;-65
2021/06/23 00:55:20;;;;;;;13.35;11.60;;;;;;;17.87;100.00;100443.97;5113370;28;20183;-66
2021/06/23 00:58:05;;;;;;;24.63;11.60;;;;;;;17.90;100.00;100459.78;5085131;28;20511;-66
2021/06/23 01:00:51;;;;;;;16.55;12.52;;;;;;;17.90;100.00;100448.19;5098366;28;20050;-66
2021/06/23 01:03:35;;;;;;;14.48;10.80;;;;;;;17.85;100.00;100453.28;5083815;28;20054;-64
2021/06/23 01:06:19;;;;;;;18.08;11.00;;;;;;;17.81;100.00;100441.19;5097856;28;20411;-66
2021/06/23 01:09:04;;;;;;;15.75;11.38;;;;;;;17.82;100.00;100437.47;5098233;28;20042;-66
2021/06/23 01:11:54;;;;;;;20.15;12.82;;;;;;;17.85;100.00;100439.78;5113422;28;20523;-66
2021/06/23 01:14:41;;;;;;;19.73;11.82;;;;;;;17.82;100.00;100438.28;5098476;28;20050;-65
2021/06/23 01:17:34;;;;;;;15.43;12.10;;;;;;;17.70;100.00;100437.09;5101896;28;20047;-66
2021/06/23 01:20:18;;;;;;;18.50;12.25;;;;;;;17.73;100.00;100442.09;5116918;28;20453;-65
2021/06/23 01:23:02;;;;;;;17.27;12.07;;;;;;;17.74;100.00;100438.41;5117193;28;20054;-65
2021/06/23 01:25:48;;;;;;;15.43;12.52;;;;;;;17.66;100.00;100435.81;5101756;28;20054;-66
2021/06/23 01:28:32;;;;;;;17.80;12.88;;;;;;;17.59;100.00;100434.84;5116673;28;20100;-66
2021/06/23 01:31:18;;;;;;;17.77;13.63;;;;;;;17.54;100.00;100437.28;5101360;28;20050;-65
2021/06/23 01:34:02;;;;;;;20.75;13.38;;;;;;;17.52;100.00;100436.59;5101616;28;20055;-65
2021/06/23 01:36:46;;;;;;;16.83;13.35;;;;;;;17.52;100.00;100450.09;5116991;28;20082;-65
2021/06/23 01:39:30;;;;;;;22.20;13.10;;;;;;;17.56;100.00;100445.16;5101239;28;20051;-65
2021/06/23 01:42:14;;;;;;;16.58;13.15;;;;;;;17.60;100.00;100446.50;5087115;28;20055;-65
2021/06/23 01:45:00;;;;;;;19.10;13.63;;;;;;;17.61;100.00;100443.59;5101421;28;20172;-66
2021/06/23 01:47:43;;;;;;;21.05;13.73;;;;;;;17.64;100.00;100439.69;5101100;28;20050;-65
2021/06/23 01:50:27;;;;;;;21.48;13.25;;;;;;;17.64;100.00;100435.16;5116568;28;20101;-66
2021/06/23 01:53:11;;;;;;;17.45;13.55;;;;;;;17.69;100.00;100434.59;5101237;28;20168;-65
2021/06/23 01:55:55;;;;;;;21.10;12.57;;;;;;;17.66;100.00;100435.81;5116563;28;20045;-66
2021/06/23 01:58:42;;;;;;;26.55;15.18;;;;;;;17.73;100.00;100436.72;5101115;28;20542;-65
2021/06/23 02:01:46;;;;;;;22.25;14.25;;;;;;;17.70;100.00;100437.09;5100964;28;20183;-66
2021/06/23 02:04:41;;;;;;;16.92;13.48;;;;;;;17.78;100.00;100422.69;5100788;28;20059;-66
2021/06/23 02:07:36;;;;;;;18.80;13.32;;;;;;;17.79;100.00;100417.09;5116365;28;20092;-65
2021/06/23 02:10:47;;;;;;;16.23;13.18;;;;;;;17.83;100.00;100421.09;5116184;28;20054;-65
2021/06/23 02:13:50;;;;;;;22.42;14.68;;;;;;;17.80;100.00;100426.03;5100801;28;20050;-65
2021/06/23 02:16:37;;;;;;;23.58;15.13;;;;;;;17.80;100.00;100423.34;5116186;28;20115;-65
2021/06/23 02:19:21;;;;;;;18.92;13.50;;;;;;;17.80;100.00;100426.03;5100738;28;20088;-65
2021/06/23 02:22:10;;;;;;;16.75;13.57;;;;;;;17.83;100.00;100431.06;5100656;28;20475;-65
2021/06/23 02:25:06;;;;;;;23.35;14.50;;;;;;;17.86;100.00;100434.22;5086050;28;20135;-65
2021/06/23 02:27:49;;;;;;;21.90;13.77;;;;;;;17.86;100.00;100431.53;5100199;28;20043;-65
2021/06/23 02:30:36;;;;;;;20.45;13.57;;;;;;;17.79;100.00;100430.59;5100396;28;20162;-66
2021/06/23 02:33:20;;;;;;;21.77;14.05;;;;;;;17.83;100.00;100429.19;5086115;28;20185;-65
2021/06/23 02:36:04;;;;;;;22.92;14.07;;;;;;;17.86;100.00;100422.59;5100462;28;20050;-65
2021/06/23 02:38:49;;;;;;;20.95;14.23;;;;;;;17.88;100.00;100434.00;5100033;28;20038;-65
2021/06/23 02:41:34;;;;;;;20.52;13.70;;;;;;;17.88;100.00;100445.66;5085815;28;20081;-65
2021/06/23 02:44:17;;;;;;;23.00;12.25;;;;;;;17.89;100.00;100446.50;5100183;28;20054;-66
2021/06/23 02:47:02;;;;;;;19.95;12.88;;;;;;;17.89;100.00;100436.53;5100126;28;20047;-65
2021/06/23 02:49:47;;;;;;;23.40;14.15;;;;;;;17.88;100.00;100431.31;5085387;28;20046;-65
2021/06/23 02:52:33;;;;;;;18.40;13.13;;;;;;;17.91;100.00;100445.28;5115475;28;20058;-65
2021/06/23 02:55:20;;;;;;;16.60;12.77;;;;;;;17.89;100.00;100451.91;5100376;28;20089;-65
2021/06/23 02:58:05;;;;;;;19.85;13.70;;;;;;;17.81;100.00;100450.13;5086007;28;20062;-66
2021/06/23 03:00:51;;;;;;;20.60;13.63;;;;;;;17.75;100.00;100450.03;5099837;28;20122;-65
2021/06/23 03:03:36;;;;;;;16.75;13.30;;;;;;;17.76;100.00;100454.38;5099931;28;20459;-65
2021/06/23 03:06:20;;;;;;;18.77;13.23;;;;;;;17.77;100.00;100465.00;5099737;28;20096;-66
2021/06/23 03:09:04;;;;;;;22.25;14.50;;;;;;;17.74;100.00;100480.72;5115202;28;20046;-65
2021/06/23 03:11:48;;;;;;;18.67;12.90;;;;;;;17.68;100.00;100490.38;5114776;28;20420;-66
2021/06/23 03:14:32;;;;;;;23.00;14.35;;;;;;;17.74;100.00;100496.88;5099588;28;20423;-66
2021/06/23 03:17:15;;;;;;;18.42;13.05;;;;;;;17.66;100.00;100503.22;5115022;28;20050;-66
2021/06/23 03:20:07;;;;;;;23.25;16.08;;;;;;;17.64;100.00;100497.16;5099279;28;20154;-66
2021/06/23 03:22:51;;;;;;;23.23;14.48;;;;;;;17.69;100.00;100493.91;5099476;28;20533;-65
2021/06/23 03:25:35;;;;;;;24.52;15.38;;;;;;;17.51;100.00;100475.38;5099723;28;20088;-65
2021/06/23 03:28:20;;;;;;;24.92;15.82;;;;;;;17.38;100.00;100488.66;5114512;28;20046;-65
2021/06/23 03:31:04;;;;;;;22.25;16.73;;;;;;;17.26;100.00;100492.75;5099485;28;20515;-65
2021/06/23 03:33:48;;;;;;;26.40;16.98;;;;;;;17.20;100.00;100515.03;5099319;28;20404;-65
2021/06/23 03:36:32;;;;;;;24.77;16.73;;;;;;;17.11;100.00;100520.69;5085108;28;20399;-64
2021/06/23 03:39:16;;;;;;;25.60;16.83;;;;;;;16.97;100.00;100506.13;5098823;28;20100;-64
2021/06/23 03:41:59;;;;;;;29.50;17.77;;;;;;;16.87;100.00;100508.22;5098816;28;20074;-65
2021/06/23 03:44:43;;;;;;;29.50;18.10;;;;;;;16.81;100.00;100508.94;5084752;28;20120;-65
2021/06/23 03:47:27;;;;;;;26.13;17.75;;;;;;;16.93;100.00;100493.19;5098999;28;20430;-65
2021/06/23 03:50:12;;;;;;;26.80;18.55;;;;;;;16.90;100.00;100491.69;5098763;28;20042;-65
2021/06/23 03:52:56;;;;;;;32.00;18.17;;;;;;;16.91;100.00;100490.66;5114363;28;20099;-65
2021/06/23 03:55:40;;;;;;;32.38;18.80;;;;;;;16.93;100.00;100485.97;5114342;28;20105;-65
2021/06/23 03:58:24;;;;;;;31.52;17.80;;;;;;;16.87;100.00;100486.66;5098908;28;20097;-65
2021/06/23 04:01:09;;;;;;;26.23;18.30;;;;;;;16.93;100.00;100485.13;5098761;28;20047;-65
2021/06/23 04:03:53;;;;;;;29.63;18.67;;;;;;;16.92;100.00;100488.81;5098770;28;20096;-65
2021/06/23 04:06:37;;;;;;;27.63;17.80;;;;;;;16.92;100.00;100496.91;5098515;28;20050;-64
2021/06/23 04:09:20;;;;;;;29.35;18.00;;;;;;;16.88;100.00;100488.34;5114102;28;20423;-65
2021/06/23 04:12:05;;;;;;;29.52;18.35;;;;;;;16.85;100.00;100488.72;5113869;28;20617;-65
2021/06/23 04:14:49;;;;;;;26.70;18.00;;;;;;;16.83;100.00;100479.97;5084423;28;20464;-65
2021/06/23 04:17:33;;;;;;;24.45;18.70;;;;;;;16.84;100.00;100484.34;5114052;28;20042;-65
2021/06/23 04:20:18;;;;;;;26.15;19.17;;;;;;;16.81;100.00;100476.63;5100310;28;20100;-65
2021/06/23 04:23:02;;;;;;;26.55;19.02;;;;;;;16.73;100.00;100474.00;5113639;28;20474;-66
2021/06/23 04:25:45;;;;;;;24.60;17.75;;;;;;;16.74;100.00;100481.03;5098514;28;20082;-65
2021/06/23 04:28:29;;;;;;;24.75;17.35;;;;;;;16.75;100.00;100493.50;5113456;28;20042;-65
2021/06/23 04:31:14;;;;;;;25.25;18.85;;;;;;;16.70;100.00;100500.44;5098295;28;20081;-65
2021/06/23 04:33:58;;;;;;;27.10;18.00;;;;;;;16.69;100.00;100498.75;5113563;28;20046;-65
2021/06/23 04:36:42;;;;;;;25.60;18.95;;;;;;;16.69;100.00;100504.97;5113881;28;20051;-65
2021/06/23 04:39:26;;;;;;;25.58;17.80;;;;;;;16.67;100.00;100516.94;5113657;28;20042;-64
2021/06/23 04:42:10;;;;;;;27.35;18.23;;;;;;;16.67;100.00;100520.44;5098331;28;20561;-65
2021/06/23 04:44:54;;;;;;;25.27;16.73;;;;;;;16.73;100.00;100529.66;5098105;28;20134;-65
2021/06/23 04:47:39;;;;;;;25.88;16.77;;;;;;;16.67;100.00;100533.09;5113331;28;20073;-65
2021/06/23 04:50:23;;;;;;;28.17;19.52;;;;;;;16.74;100.00;100539.44;5100295;28;20515;-65
2021/06/23 04:53:08;;;;;;;26.30;18.17;;;;;;;16.77;100.00;100533.72;5102659;28;20042;-65
2021/06/23 04:55:55;;;;;;;22.60;17.10;;;;;;;16.77;100.00;100537.22;5102361;28;20046;-65
2021/06/23 04:58:39;;;;;;;24.75;17.77;;;;;;;16.83;100.00;100538.38;5117660;28;20046;-65
2021/06/23 05:01:23;;;;;;;27.02;17.60;;;;;;;16.83;100.00;100536.53;5101998;28;20049;-65
2021/06/23 05:04:07;;;;;;;22.35;16.17;;;;;;;16.83;100.00;100536.53;5117870;28;20047;-65
2021/06/23 05:06:51;;;;;;;22.83;16.65;;;;;;;16.81;100.00;100541.25;5117589;28;20057;-65
2021/06/23 05:09:39;;;;;;;26.95;17.40;;;;;;;16.79;100.00;100540.56;5101827;28;20088;-64
2021/06/23 05:12:26;;;;;;;25.42;17.30;;;;;;;16.88;100.00;100547.59;5087342;28;20054;-65
2021/06/23 05:15:10;;;;;;;24.60;15.88;;;;;;;16.93;100.00;100545.22;5117358;28;20046;-65
2021/06/23 05:17:55;;;;;;;20.95;15.00;;;;;;;16.90;100.00;100547.41;5087332;28;20043;-65
2021/06/23 05:20:39;;;;;;;22.88;14.82;;;;;;;16.94;100.00;100546.88;5101684;28;20051;-64
2021/06/23 05:23:22;;;;;;;20.95;15.32;;;;;;;17.01;100.00;100549.69;5101812;28;20124;-65
2021/06/23 05:26:06;;;;;;;28.88;16.92;;;;;;;17.09;100.00;100550.47;5101879;28;20065;-65
2021/06/23 05:28:50;;;;;;;22.85;16.40;;;;;;;17.25;100.00;100542.28;5116700;28;20057;-65
2021/06/23 05:31:34;;;;;;;23.75;15.82;;;;;;;17.38;100.00;100547.13;5086937;28;20050;-65
2021/06/23 05:34:18;;;;;;;19.48;14.98;;;;;;;17.42;100.00;100551.94;5101281;28;20051;-65
2021/06/23 05:37:03;;;;;;;20.38;13.70;;;;;;;17.40;100.00;100548.59;5116988;28;20180;-65
2021/06/23 05:39:47;;;;;;;20.25;13.95;;;;;;;17.54;100.00;100550.50;5101337;28;20453;-65
2021/06/23 05:42:31;;;;;;;21.38;13.82;;;;;;;17.65;100.00;100550.06;5116548;28;20107;-65
2021/06/23 05:45:15;;;;;;;18.67;13.80;;;;;;;17.73;100.00;100554.53;5116524;28;20104;-64
2021/06/23 05:47:59;;;;;;;21.40;14.27;;;;;;;17.75;100.00;100556.03;5116377;28;20100;-65
2021/06/23 05:50:44;;;;;;;20.13;15.25;;;;;;;17.91;100.00;100552.34;5116336;28;20101;-65
2021/06/23 05:53:29;;;;;;;16.85;13.90;;;;;;;18.07;100.00;100550.31;5087310;28;20046;-66
2021/06/23 05:56:14;;;;;;;17.95;12.95;;;;;;;18.23;100.00;100552.00;5101167;28;20051;-65
2021/06/23 05:58:58;;;;;;;19.73;12.95;;;;;;;18.41;100.00;100555.19;5116547;28;20046;-66
2021/06/23 06:01:42;;;;;;;20.70;14.63;;;;;;;18.52;100.00;100564.47;5100318;28;20514;-66
2021/06/23 06:04:26;;;;;;;;;;;;;;;18.46;100.00;100564.41;5101372;28;20082;-64
2021/06/23 06:07:10;;;;;;;19.17;13.73;;;;;;;18.56;100.00;100568.47;5100745;28;19919;-66
2021/06/23 06:09:54;;;;;;;22.10;15.13;;;;;;;18.54;100.00;100569.66;5115902;28;20085;-65
2021/06/23 06:12:38;;;;;;;18.77;14.38;;;;;;;18.46;100.00;100569.78;5100588;28;20100;-65
2021/06/23 06:15:22;;;;;;;21.52;14.93;;;;;;;18.42;100.00;100581.16;5100505;28;20054;-66
2021/06/23 06:18:07;;;;;;;20.50;14.40;;;;;;;18.29;100.00;100581.78;5086399;28;20163;-65
2021/06/23 06:20:53;;;;;;;20.48;15.70;;;;;;;18.25;100.00;100577.78;5115930;28;20113;-65
2021/06/23 06:23:37;;;;;;;28.45;16.17;;;;;;;18.36;100.00;100577.34;5115693;28;20511;-63
2021/06/23 06:26:21;;;;;;;21.67;16.02;;;;;;;18.48;100.00;100581.25;5086296;28;20055;-64
2021/06/23 06:29:05;;;;;;;27.38;17.95;;;;;;;18.67;100.00;100588.75;5100061;28;20039;-65
2021/06/23 06:31:49;;;;;;;21.23;15.85;;;;;;;18.87;100.00;100587.16;5115819;28;20081;-64
2021/06/23 06:34:33;;;;;;;24.38;17.25;;;;;;;19.08;100.00;100589.88;5115835;28;20116;-66
2021/06/23 06:37:17;;;;;;;21.95;16.45;;;;;;;19.27;100.00;100587.41;5100403;28;20139;-65
2021/06/23 06:40:01;;;;;;;17.60;14.52;;;;;;;19.27;100.00;100592.81;5115449;28;20043;-66
2021/06/23 06:42:45;;;;;;;20.10;15.07;;;;;;;19.24;100.00;100592.38;5085917;28;20600;-65
2021/06/23 06:45:29;;;;;;;22.02;15.95;;;;;;;19.17;100.00;100592.28;5100170;28;20046;-65
2021/06/23 06:48:12;;;;;;;20.55;14.93;;;;;;;19.02;100.00;100593.34;5115190;28;20046;-64
2021/06/23 06:50:56;;;;;;;19.20;15.02;;;;;;;19.06;100.00;100597.31;5085663;28;20085;-65
2021/06/23 06:53:40;;;;;;;20.13;14.07;;;;;;;18.96;100.00;100585.97;5085720;28;20446;-65
2021/06/23 06:56:24;;;;;;;18.58;14.18;;;;;;;18.91;100.00;100591.13;5115426;28;20046;-64
2021/06/23 06:59:09;;;;;;;17.65;13.95;;;;;;;18.91;100.00;100604.66;5115385;28;20042;-66
2021/06/23 07:01:53;;;;;;;182.98;33.42;;;;;;;19.00;100.00;100611.63;5099648;28;20050;-65
2021/06/23 07:04:36;;;;;;;28.55;14.50;;;;;;;19.06;100.00;100605.44;5115566;28;20042;-65
2021/06/23 07:07:20;;;;;;;22.40;13.23;;;;;;;19.17;100.00;100603.09;5099865;28;20205;-66
2021/06/23 07:10:05;;;;;;;18.35;14.23;;;;;;;19.18;100.00;100604.78;5099387;28;20065;-66
2021/06/23 07:12:50;;;;;;;18.92;12.98;;;;;;;19.39;100.00;100603.97;5098598;28;20055;-65
2021/06/23 07:15:34;;;;;;;19.17;13.27;;;;;;;19.38;100.00;100607.72;5099297;28;20515;-66
2021/06/23 07:18:17;;;;;;;18.70;14.43;;;;;;;19.56;100.00;100613.50;5099427;28;20042;-66
2021/06/23 07:21:01;;;;;;;18.40;13.23;;;;;;;19.70;100.00;100609.91;5114758;28;20523;-66
2021/06/23 07:23:47;;;;;;;21.38;14.10;;;;;;;19.92;100.00;100620.47;5114896;28;20066;-65
2021/06/23 07:26:31;;;;;;;20.85;14.07;;;;;;;20.08;100.00;100608.56;5099269;28;20054;-65
2021/06/23 07:29:16;;;;;;;16.27;13.43;;;;;;;20.21;100.00;100616.81;5114393;28;20046;-65
2021/06/23 07:32:03;;;;;;;19.52;14.13;;;;;;;20.24;100.00;100622.66;5084894;28;20053;-65
2021/06/23 07:37:31;;;;;;;23.48;14.80;;;;;;;20.35;100.00;100642.94;5099295;28;20081;-65
2021/06/23 07:40:16;;;;;;;18.23;15.73;;;;;;;20.36;100.00;100637.31;5114233;28;20070;-65
2021/06/23 07:42:59;;;;;;;18.10;15.07;;;;;;;20.36;99.91;100637.31;5114236;28;20412;-65
2021/06/23 07:45:48;;;;;;;20.33;16.10;;;;;;;20.28;100.00;100639.31;5114547;28;20087;-65
2021/06/23 07:48:36;;;;;;;21.77;15.70;;;;;;;20.26;100.00;100638.69;5099492;28;20039;-65
2021/06/23 07:51:29;;;;;;;21.63;16.70;;;;;;;20.23;100.00;100639.09;5114028;28;20467;-65
2021/06/23 07:54:19;;;;;;;23.88;16.90;;;;;;;20.26;100.00;100638.69;5100192;28;20151;-65
2021/06/23 08:11:39;;;;;;;23.08;19.25;;;;;;;20.51;100.00;100650.75;5099324;28;20077;-65
2021/06/23 08:14:23;;;;;;;61.83;23.60;;;;;;;20.62;99.31;100639.34;5113688;28;20176;-65
2021/06/23 08:17:07;;;;;;;86.38;26.23;;;;;;;20.71;99.99;100630.03;5113691;28;20051;-65
2021/06/23 08:19:51;;;;;;;31.60;18.05;;;;;;;20.84;97.38;100636.34;5098450;28;20043;-65
2021/06/23 08:22:35;;;;;;;24.33;19.45;;;;;;;20.90;97.24;100635.56;5098347;28;20127;-66
2021/06/23 08:25:21;;;;;;;22.45;19.52;;;;;;;20.99;97.64;100636.22;5098308;28;20096;-66
2021/06/23 08:28:05;;;;;;;25.48;21.52;;;;;;;21.08;96.76;100632.31;5098129;28;20142;-66
2021/06/23 08:30:49;;;;;;;23.17;19.92;;;;;;;21.11;96.90;100632.75;5098129;28;20104;-66
2021/06/23 08:33:33;;;;;;;23.05;19.15;;;;;;;21.37;94.02;100639.09;5113982;28;20609;-66
2021/06/23 08:36:17;;;;;;;24.58;19.23;;;;;;;21.70;91.36;100631.03;5098216;28;20093;-66
2021/06/23 08:39:01;;;;;;;;;;;;;;;21.93;90.39;100637.75;5098554;28;20520;-66
2021/06/23 08:41:45;;;;;;;22.02;17.98;;;;;;;22.34;85.57;100629.38;5098034;28;20006;-66
2021/06/23 08:44:29;;;;;;;18.83;16.95;;;;;;;22.82;85.22;100626.13;5114033;28;20107;-66
2021/06/23 08:47:13;;;;;;;20.38;17.33;;;;;;;23.25;79.73;100608.19;5098315;28;20569;-66
2021/06/23 08:49:57;;;;;;;;;;;;;;;23.56;79.24;100615.56;5098496;28;20096;-66
2021/06/23 08:52:41;;;;;;;17.23;15.52;;;;;;;23.74;77.94;100613.72;5083608;28;19961;-66
2021/06/23 08:55:25;;;;;;;;;;;;;;;23.88;78.19;100612.63;5113956;28;20097;-65
2021/06/23 08:58:09;;;;;;;15.60;14.13;;;;;;;24.22;75.77;100617.56;5098312;28;19918;-66
2021/06/23 09:00:53;;;;;;;15.00;13.43;;;;;;;24.37;72.66;100609.84;5097900;28;20263;-66
2021/06/23 09:04:09;;;;;;;15.10;13.70;;;;;;;24.33;74.13;100606.78;5098210;28;20184;-65
2021/06/23 09:06:54;;;;;;;15.73;13.63;;;;;;;24.56;72.45;100603.41;5098557;28;20051;-67
2021/06/23 09:09:38;;;;;;;14.68;13.18;;;;;;;24.59;71.53;100602.97;5098028;28;20062;-65
2021/06/23 09:12:22;;;;;;;15.05;12.77;;;;;;;24.64;71.34;100603.94;5098156;28;20050;-66
2021/06/23 09:15:06;;;;;;;15.35;13.40;;;;;;;24.71;71.48;100592.97;5113496;28;20097;-66
2021/06/23 09:17:50;;;;;;;12.90;11.68;;;;;;;24.93;69.21;100594.16;5098274;28;20042;-66
2021/06/23 09:20:36;;;;;;;16.85;12.88;;;;;;;25.02;70.00;100592.78;5097798;28;20521;-66
2021/06/23 09:23:39;;;;;;;12.48;11.27;;;;;;;25.13;68.85;100595.56;5113162;28;20055;-66
2021/06/23 09:26:37;;;;;;;12.15;10.98;;;;;;;25.27;69.30;100601.69;5097819;28;20096;-66
2021/06/23 09:29:21;;;;;;;12.82;11.57;;;;;;;25.25;67.56;100593.78;5097722;28;20068;-66
2021/06/23 09:32:05;;;;;;;;;;;;;;;25.01;67.58;100591.94;5113667;28;20054;-66
2021/06/23 09:34:53;;;;;;;14.93;13.32;;;;;;;25.31;68.05;100597.47;5112726;28;19918;-66
2021/06/23 09:37:37;;;;;;;13.27;11.90;;;;;;;25.38;67.03;100603.63;5101702;28;20507;-66
2021/06/23 09:40:23;;;;;;;14.20;12.68;;;;;;;25.61;66.16;100598.28;5117067;28;20087;-67
2021/06/23 09:43:07;;;;;;;15.05;12.60;;;;;;;25.56;66.37;100596.25;5087075;28;20078;-66
2021/06/23 09:45:54;;;;;;;14.20;12.40;;;;;;;25.72;64.83;100600.22;5116806;28;20096;-66
2021/06/23 09:48:38;;;;;;;12.20;11.10;;;;;;;25.73;65.79;100594.50;5100985;28;20070;-66
2021/06/23 09:51:22;;;;;;;12.00;10.80;;;;;;;25.79;64.53;100595.44;5116466;28;20109;-65
2021/06/23 09:54:06;;;;;;;11.48;10.38;;;;;;;25.86;63.79;100591.59;5101237;28;20185;-66
2021/06/23 09:56:51;;;;;;;10.27;9.27;;;;;;;25.94;63.50;100588.50;5100822;28;20172;-66
2021/06/23 09:59:43;;;;;;;9.63;8.77;;;;;;;26.38;64.42;100581.63;5100956;28;20420;-66
2021/06/23 10:02:29;;;;;;;10.50;8.15;;;;;;;26.95;62.68;100583.47;5101946;28;20109;-65
2021/06/23 10:05:19;;;;;;;10.52;9.60;;;;;;;27.32;59.67;100578.22;5101139;28;20100;-67
2021/06/23 10:08:03;;;;;;;9.10;8.30;;;;;;;27.58;56.78;100572.13;5116079;28;20042;-67
2021/06/23 10:10:47;;;;;;;7.85;7.18;;;;;;;27.64;58.54;100564.84;5100900;28;20054;-66
2021/06/23 10:13:31;;;;;;;7.40;6.70;;;;;;;28.00;56.91;100578.91;5116045;28;20072;-67
2021/06/23 10:16:15;;;;;;;;;;;;;;;28.41;56.12;100566.66;5116688;28;20431;-67
2021/06/23 10:18:59;;;;;;;7.32;6.63;;;;;;;29.01;54.11;100562.84;5100987;28;19956;-66
2021/06/23 10:21:43;;;;;;;6.85;5.32;;;;;;;29.47;52.28;100561.41;5102307;28;20105;-66
2021/06/23 10:24:29;;;;;;;9.35;7.38;;;;;;;29.89;50.85;100557.69;5100464;28;20047;-67
2021/06/23 10:27:13;;;;;;;7.60;5.55;;;;;;;30.18;48.11;100557.13;5100556;28;20094;-67
2021/06/23 10:29:58;;;;;;;4.82;4.43;;;;;;;30.93;45.97;100556.72;5100176;28;20089;-66
2021/06/23 10:32:42;;;;;;;7.25;5.40;;;;;;;30.93;48.03;100557.53;5100710;28;20051;-67
2021/06/23 10:35:27;;;;;;;7.78;6.93;;;;;;;30.83;45.83;100556.69;5086137;28;20162;-67
2021/06/23 10:38:11;;;;;;;10.75;6.03;;;;;;;31.73;44.87;100556.94;5100782;28;20043;-67
2021/06/23 10:40:57;;;;;;;5.85;5.35;;;;;;;32.95;41.79;100543.47;5100628;28;20097;-67
2021/06/23 10:43:43;;;;;;;5.45;5.05;;;;;;;34.54;40.54;100546.94;5100393;28;20507;-67
2021/06/23 10:46:39;;;;;;;5.03;4.65;;;;;;;35.70;36.05;100536.81;5100366;28;20073;-67
2021/06/23 10:49:53;;;;;;;5.78;5.03;;;;;;;36.29;34.96;100536.91;5099815;28;20092;-67
2021/06/23 10:52:41;;;;;;;8.15;6.78;;;;;;;37.69;33.97;100545.00;5115163;28;20096;-68
2021/06/23 10:55:24;;;;;;;5.57;4.63;;;;;;;38.39;31.80;100543.22;5085806;28;20408;-68
2021/06/23 10:58:10;;;;;;;6.82;5.80;;;;;;;37.99;31.24;100553.44;5115124;28;20065;-67
2021/06/23 11:01:12;;;;;;;6.97;6.35;;;;;;;37.00;32.68;100548.25;5099799;28;20177;-68
2021/06/23 11:04:02;;;;;;;8.20;6.90;;;;;;;35.52;35.11;100548.75;5115343;28;20069;-68
2021/06/23 11:06:46;;;;;;;7.60;7.00;;;;;;;33.85;38.43;100555.66;5099846;28;20042;-67
2021/06/23 11:09:30;;;;;;;7.43;6.63;;;;;;;32.78;39.61;100543.03;5115220;28;20042;-67
2021/06/23 11:12:43;;;;;;;7.35;6.68;;;;;;;32.18;41.13;100559.69;5115213;28;20058;-67
2021/06/23 11:15:36;;;;;;;7.13;6.45;;;;;;;32.07;41.59;100558.84;5114780;28;20181;-67
2021/06/23 11:18:31;;;;;;;8.02;7.32;;;;;;;31.84;41.73;100561.34;5099633;28;20043;-67
2021/06/23 11:21:18;;;;;;;9.52;8.73;;;;;;;32.64;40.99;100552.97;5114912;28;20051;-66
2021/06/23 11:24:15;;;;;;;8.73;8.02;;;;;;;34.66;37.41;100562.03;5114792;28;20100;-66
2021/06/23 11:27:02;;;;;;;9.43;8.52;;;;;;;36.06;33.28;100565.63;5114830;28;20046;-66
2021/06/23 11:29:47;;;;;;;7.50;6.90;;;;;;;36.69;33.77;100572.25;5114466;28;20051;-67
2021/06/23 11:32:31;;;;;;;10.70;9.80;;;;;;;37.04;32.18;100563.19;5085454;28;20062;-67
2021/06/23 11:35:15;;;;;;;9.98;8.73;;;;;;;38.25;29.84;100565.56;5114410;28;20078;-66
2021/06/23 11:37:59;;;;;;;7.15;6.55;;;;;;;37.51;32.09;100562.69;5099251;28;20054;-67
2021/06/23 11:40:43;;;;;;;8.38;7.47;;;;;;;36.05;33.52;100555.66;5084674;28;20101;-67
2021/06/23 11:43:27;;;;;;;7.95;7.25;;;;;;;36.36;33.42;100552.00;5099337;28;20047;-67
2021/06/23 11:46:11;;;;;;;7.38;6.68;;;;;;;37.73;32.10;100546.00;5098836;28;20062;-67
2021/06/23 11:48:55;;;;;;;7.40;6.25;;;;;;;39.08;28.83;100537.56;5098865;28;20104;-67
2021/06/23 11:51:42;;;;;;;6.75;6.10;;;;;;;39.04;29.10;100538.53;5114105;28;20054;-67
2021/06/23 11:54:26;;;;;;;6.95;6.35;;;;;;;37.81;30.84;100543.28;5114098;28;20050;-67
2021/06/23 11:57:10;;;;;;;6.30;5.88;;;;;;;36.96;31.83;100541.66;5114289;28;20070;-68
2021/06/23 11:59:54;;;;;;;7.07;6.40;;;;;;;37.77;31.72;100539.50;5113852;28;20097;-67
2021/06/23 12:02:38;;;;;;;7.32;6.72;;;;;;;38.74;29.58;100536.63;5084528;28;20525;-67
2021/06/23 12:05:22;;;;;;;6.95;5.95;;;;;;;39.25;29.54;100534.81;5114135;28;20090;-67
2021/06/23 12:08:06;;;;;;;6.60;6.10;;;;;;;40.08;28.14;100537.94;5098437;28;20070;-68
2021/06/23 12:10:50;;;;;;;5.78;5.28;;;;;;;41.02;26.04;100535.56;5113976;28;20417;-68
2021/06/23 12:13:35;;;;;;;5.57;4.97;;;;;;;40.79;26.31;100531.41;5098689;28;20086;-67
2021/06/23 12:16:21;;;;;;;5.40;4.90;;;;;;;39.96;26.15;100528.56;5098776;28;20058;-68
2021/06/23 12:19:04;;;;;;;6.72;5.88;;;;;;;39.73;27.43;100511.22;5113615;28;20084;-68
2021/06/23 12:21:48;;;;;;;5.25;4.85;;;;;;;40.36;26.97;100522.41;5098191;28;20050;-67
2021/06/23 12:24:32;;;;;;;6.00;5.50;;;;;;;40.79;26.73;100509.06;5084320;28;20054;-68
2021/06/23 12:27:16;;;;;;;6.68;5.40;;;;;;;39.42;27.60;100514.50;5113864;28;20054;-66
2021/06/23 12:30:00;;;;;;;6.28;5.00;;;;;;;37.67;28.75;100511.13;5098511;28;20558;-64
2021/06/23 12:32:44;;;;;;;6.38;4.55;;;;;;;38.01;29.20;100519.72;5098444;28;20088;-65
2021/06/23 12:35:28;;;;;;;5.07;4.60;;;;;;;38.67;27.97;100511.19;5113881;28;20054;-67
2021/06/23 12:38:14;;;;;;;4.88;4.47;;;;;;;39.21;28.39;100510.69;5084123;28;20171;-67
2021/06/23 12:40:58;;;;;;;5.00;4.50;;;;;;;39.76;27.04;100515.28;5098287;28;20126;-67
2021/06/23 12:43:42;;;;;;;5.13;4.50;;;;;;;39.97;26.67;100524.63;5083883;28;20050;-67
2021/06/23 12:46:26;;;;;;;22.52;7.57;;;;;;;40.63;26.21;100530.38;5098096;28;20466;-66
2021/06/23 12:49:10;;;;;;;5.43;4.93;;;;;;;40.13;26.11;100529.38;5084028;28;20043;-67